createdAt,value
2023-03-30T00:01:06.280Z,6.65
2023-03-30T00:03:33.325Z,6.40
2023-03-30T00:06:04.287Z,6.25
2023-03-30T00:08:31.515Z,6.22
2023-03-30T00:11:07.475Z,6.98
2023-03-30T00:13:36.524Z,5.68
2023-03-30T00:16:05.470Z,5.96
2023-03-30T00:18:32.291Z,5.98
2023-03-30T00:20:58.914Z,6.38
2023-03-30T00:23:26.060Z,6.85
2023-03-30T00:25:52.874Z,6.34
2023-03-30T00:28:19.502Z,6.01
2023-03-30T00:30:48.084Z,6.18
2023-03-30T00:33:15.512Z,6.24
2023-03-30T00:35:42.154Z,6.30
2023-03-30T00:38:08.804Z,5.74
2023-03-30T00:40:35.637Z,5.78
2023-03-30T00:43:05.912Z,5.90
2023-03-30T00:45:34.840Z,5.67
2023-03-30T00:48:16.623Z,6.15
2023-03-30T00:50:52.152Z,6.76
2023-03-30T00:53:28.586Z,5.46
2023-03-30T00:55:57.260Z,5.86
2023-03-30T00:58:25.861Z,6.10
2023-03-30T01:00:53.230Z,5.33
2023-03-30T01:03:30.471Z,5.55
2023-03-30T01:06:00.685Z,5.33
2023-03-30T01:08:29.975Z,5.53
2023-03-30T01:10:56.618Z,6.21
2023-03-30T01:13:23.421Z,6.69
2023-03-30T01:16:27.191Z,6.15
2023-03-30T01:19:12.517Z,6.54
2023-03-30T01:22:13.360Z,5.39
2023-03-30T01:25:11.870Z,5.45
2023-03-30T01:28:12.371Z,5.73
2023-03-30T01:31:20.479Z,5.75
2023-03-30T01:34:38.520Z,5.85
2023-03-30T01:37:26.744Z,6.41
2023-03-30T01:40:16.918Z,5.90
2023-03-30T01:43:16.339Z,5.94
2023-03-30T01:46:02.093Z,6.10
2023-03-30T01:49:15.726Z,6.32
2023-03-30T01:51:59.156Z,6.13
2023-03-30T01:54:39.363Z,6.05
2023-03-30T01:57:13.306Z,6.26
2023-03-30T02:00:09.301Z,6.59
2023-03-30T02:02:38.282Z,5.62
2023-03-30T02:05:06.170Z,5.63
2023-03-30T02:07:37.914Z,5.25
2023-03-30T02:10:08.583Z,5.44
2023-03-30T02:12:38.064Z,5.26
2023-03-30T02:15:09.743Z,4.78
2023-03-30T02:17:36.602Z,5.04
2023-03-30T02:20:04.760Z,5.71
2023-03-30T02:22:31.863Z,7.82
2023-03-30T02:24:58.520Z,5.35
2023-03-30T02:27:27.101Z,4.45
2023-03-30T02:29:53.772Z,5.37
2023-03-30T02:32:44.160Z,6.00
2023-03-30T02:35:26.955Z,6.22
2023-03-30T02:38:18.290Z,6.53
2023-03-30T02:41:25.837Z,6.50
2023-03-30T02:43:55.412Z,6.45
2023-03-30T02:46:44.247Z,5.78
2023-03-30T02:49:25.693Z,5.96
2023-03-30T02:52:04.849Z,6.16
2023-03-30T02:54:54.883Z,5.80
2023-03-30T02:58:12.993Z,5.91
2023-03-30T03:01:04.961Z,6.67
2023-03-30T03:03:42.411Z,6.54
2023-03-30T03:06:09.790Z,6.39
2023-03-30T03:08:39.856Z,6.06
2023-03-30T03:11:07.769Z,6.02
2023-03-30T03:13:36.342Z,5.53
2023-03-30T03:16:09.629Z,11.96
2023-03-30T03:18:37.017Z,7.86
2023-03-30T03:21:03.959Z,4.81
2023-03-30T03:23:30.820Z,5.38
2023-03-30T03:25:57.610Z,6.31
2023-03-30T03:28:24.260Z,5.52
2023-03-30T03:30:51.205Z,5.63
2023-03-30T03:33:19.187Z,5.18
2023-03-30T03:35:46.135Z,5.64
2023-03-30T03:38:13.533Z,5.91
2023-03-30T03:40:41.048Z,6.32
2023-03-30T03:43:07.709Z,6.57
2023-03-30T03:45:34.366Z,6.64
2023-03-30T03:48:01.130Z,6.26
2023-03-30T03:50:27.825Z,6.04
2023-03-30T03:52:54.413Z,6.61
2023-03-30T03:55:21.111Z,6.33
2023-03-30T03:57:48.758Z,6.76
2023-03-30T04:00:15.874Z,6.21
2023-03-30T04:02:44.312Z,6.50
2023-03-30T04:05:14.189Z,6.34
2023-03-30T04:07:40.859Z,6.08
2023-03-30T04:10:07.952Z,5.81
2023-03-30T04:12:34.692Z,5.87
2023-03-30T04:15:05.044Z,6.59
2023-03-30T04:17:32.682Z,6.12
2023-03-30T04:20:00.135Z,6.25
2023-03-30T04:22:26.861Z,6.25
2023-03-30T04:24:53.502Z,6.83
2023-03-30T04:27:20.201Z,6.10
2023-03-30T04:29:46.954Z,5.84
2023-03-30T04:32:13.718Z,5.59
2023-03-30T04:34:40.416Z,5.59
2023-03-30T04:37:07.008Z,5.95
2023-03-30T04:39:33.654Z,6.07
2023-03-30T04:42:00.386Z,6.27
2023-03-30T04:44:27.010Z,6.42
2023-03-30T04:46:53.591Z,6.61
2023-03-30T04:49:20.335Z,5.96
2023-03-30T04:51:47.928Z,5.74
2023-03-30T04:54:15.771Z,5.93
2023-03-30T04:56:42.441Z,6.23
2023-03-30T04:59:09.057Z,6.19
2023-03-30T05:01:35.714Z,6.85
2023-03-30T05:04:02.436Z,7.40
2023-03-30T05:06:32.684Z,7.03
2023-03-30T05:08:59.292Z,6.10
2023-03-30T05:11:25.914Z,6.32
2023-03-30T05:13:53.284Z,7.21
2023-03-30T05:16:20.590Z,7.24
2023-03-30T05:18:49.440Z,7.06
2023-03-30T05:21:18.020Z,6.62
2023-03-30T05:23:44.656Z,6.83
2023-03-30T05:26:11.328Z,7.05
2023-03-30T05:28:37.990Z,6.56
2023-03-30T05:31:05.071Z,6.75
2023-03-30T05:33:31.859Z,7.70
2023-03-30T05:35:58.536Z,7.22
2023-03-30T05:38:25.203Z,6.81
2023-03-30T05:40:53.261Z,6.10
2023-03-30T05:43:20.424Z,6.44
2023-03-30T05:45:47.061Z,6.58
2023-03-30T05:48:13.665Z,7.24
2023-03-30T05:50:40.263Z,6.63
2023-03-30T05:53:06.874Z,6.82
2023-03-30T05:55:33.484Z,7.63
2023-03-30T05:58:00.603Z,7.16
2023-03-30T06:00:27.261Z,7.68
2023-03-30T06:02:53.913Z,7.07
2023-03-30T06:05:20.553Z,6.85
2023-03-30T06:07:47.252Z,7.08
2023-03-30T06:10:14.009Z,6.80
2023-03-30T06:12:40.668Z,7.28
2023-03-30T06:15:08.059Z,6.80
2023-03-30T06:17:35.786Z,6.39
2023-03-30T06:20:04.452Z,6.37
2023-03-30T06:22:32.029Z,6.58
2023-03-30T06:24:58.704Z,6.04
2023-03-30T06:27:25.309Z,5.93
2023-03-30T06:29:51.910Z,5.97
2023-03-30T06:32:19.001Z,6.68
2023-03-30T06:34:45.624Z,6.95
2023-03-30T06:37:12.259Z,6.52
2023-03-30T06:39:38.863Z,6.47
2023-03-30T06:42:05.833Z,6.36
2023-03-30T06:44:33.453Z,6.03
2023-03-30T06:47:00.394Z,6.24
2023-03-30T06:49:27.204Z,6.40
2023-03-30T06:51:55.726Z,6.76
2023-03-30T06:54:22.324Z,6.76
2023-03-30T06:56:49.170Z,6.22
2023-03-30T06:59:16.666Z,5.87
2023-03-30T07:01:43.333Z,6.25
2023-03-30T07:04:10.609Z,5.80
2023-03-30T07:06:37.452Z,5.63
2023-03-30T07:09:04.244Z,6.39
2023-03-30T07:11:31.516Z,6.40
2023-03-30T07:13:58.214Z,6.69
2023-03-30T07:16:25.804Z,5.95
2023-03-30T07:18:52.497Z,5.47
2023-03-30T07:21:21.168Z,5.87
2023-03-30T07:23:47.813Z,5.57
2023-03-30T07:26:14.453Z,5.11
2023-03-30T07:28:41.076Z,5.36
2023-03-30T07:31:09.892Z,5.26
2023-03-30T07:33:36.884Z,5.35
2023-03-30T07:36:04.191Z,4.74
2023-03-30T07:38:30.920Z,5.08
2023-03-30T07:40:57.523Z,5.12
2023-03-30T07:43:24.135Z,4.87
2023-03-30T07:45:50.844Z,4.99
2023-03-30T07:48:17.546Z,4.93
2023-03-30T07:50:44.186Z,5.43
2023-03-30T07:53:10.871Z,4.73
2023-03-30T07:55:37.465Z,4.81
2023-03-30T07:58:04.050Z,4.43
2023-03-30T08:00:30.687Z,4.50
2023-03-30T08:02:57.403Z,4.29
2023-03-30T08:05:24.070Z,4.10
2023-03-30T08:07:50.715Z,3.69
2023-03-30T08:10:17.377Z,3.75
2023-03-30T08:12:43.978Z,4.10
2023-03-30T08:15:11.012Z,3.74
2023-03-30T08:17:37.598Z,3.65
2023-03-30T08:20:04.589Z,3.84
2023-03-30T08:22:31.176Z,3.70
2023-03-30T08:24:57.754Z,3.52
2023-03-30T08:27:24.509Z,3.60
2023-03-30T08:29:51.159Z,3.44
2023-03-30T08:32:17.742Z,3.36
2023-03-30T08:34:44.340Z,3.72
2023-03-30T08:37:11.024Z,3.72
2023-03-30T08:39:37.837Z,3.52
2023-03-30T08:42:22.868Z,3.71
2023-03-30T08:44:55.458Z,3.38
2023-03-30T08:47:33.811Z,3.70
2023-03-30T08:50:06.472Z,3.85
2023-03-30T08:52:33.368Z,4.18
2023-03-30T08:55:00.847Z,4.05
2023-03-30T08:58:05.226Z,3.87
2023-03-30T09:00:45.871Z,3.68
2023-03-30T09:03:25.294Z,3.65
2023-03-30T09:06:00.524Z,4.00
2023-03-30T09:08:28.935Z,3.92
2023-03-30T09:11:01.330Z,3.83
2023-03-30T09:13:35.701Z,3.51
2023-03-30T09:16:25.225Z,3.53
2023-03-30T09:18:57.899Z,3.61
2023-03-30T09:21:30.189Z,3.37
2023-03-30T09:24:00.870Z,2.90
2023-03-30T09:26:44.870Z,3.57
2023-03-30T09:29:19.189Z,3.10
2023-03-30T09:32:09.681Z,3.13
2023-03-30T09:34:53.170Z,3.52
2023-03-30T09:37:19.826Z,3.66
2023-03-30T09:39:47.676Z,3.44
2023-03-30T09:42:38.048Z,3.18
2023-03-30T09:45:22.406Z,2.99
2023-03-30T09:47:51.649Z,3.04
2023-03-30T09:50:27.040Z,3.49
2023-03-30T09:52:58.620Z,3.25
2023-03-30T09:55:34.597Z,3.40
2023-03-30T09:58:18.150Z,3.23
2023-03-30T10:00:45.609Z,2.79
2023-03-30T10:03:23.400Z,3.08
2023-03-30T10:06:07.080Z,2.97
2023-03-30T10:08:42.794Z,3.00
2023-03-30T10:11:10.173Z,3.15
2023-03-30T10:13:42.402Z,3.02
2023-03-30T10:16:31.402Z,3.21
2023-03-30T10:19:04.033Z,3.35
2023-03-30T10:21:37.173Z,3.53
2023-03-30T10:24:06.993Z,3.41
2023-03-30T10:26:37.638Z,3.02
2023-03-30T10:29:08.025Z,3.26
2023-03-30T10:31:38.350Z,3.18
2023-03-30T10:34:18.173Z,3.15
2023-03-30T10:36:50.055Z,3.07
2023-03-30T10:39:34.032Z,3.38
2023-03-30T10:42:04.471Z,2.92
2023-03-30T10:44:53.513Z,3.10
2023-03-30T10:47:48.585Z,2.95
2023-03-30T10:50:29.895Z,3.19
2023-03-30T10:53:09.343Z,3.20
2023-03-30T10:55:54.646Z,2.91
2023-03-30T10:58:23.935Z,2.81
2023-03-30T11:01:00.657Z,3.28
2023-03-30T11:03:30.172Z,3.46
2023-03-30T11:06:05.215Z,3.00
2023-03-30T11:08:40.163Z,3.27
2023-03-30T11:11:18.391Z,2.67
2023-03-30T11:13:55.226Z,3.09
2023-03-30T11:16:35.979Z,3.05
2023-03-30T11:19:27.729Z,3.07
2023-03-30T11:22:31.370Z,3.11
2023-03-30T11:24:59.633Z,2.97
2023-03-30T11:27:28.416Z,3.00
2023-03-30T11:30:24.057Z,3.22
2023-03-30T11:33:08.278Z,3.50
2023-03-30T11:35:42.780Z,3.53
2023-03-30T11:38:19.617Z,3.33
2023-03-30T11:40:54.500Z,3.17
2023-03-30T11:43:28.799Z,2.82
2023-03-30T11:46:15.684Z,3.46
2023-03-30T11:49:09.863Z,3.15
2023-03-30T11:51:57.804Z,2.95
2023-03-30T11:54:52.675Z,3.18
2023-03-30T11:57:34.769Z,3.58
2023-03-30T12:00:48.204Z,3.34
2023-03-30T12:03:39.247Z,3.31
2023-03-30T12:06:24.676Z,3.29
2023-03-30T12:09:04.070Z,3.34
2023-03-30T12:11:45.744Z,3.45
2023-03-30T12:14:48.617Z,3.43
2023-03-30T12:17:48.033Z,2.83
2023-03-30T12:20:24.956Z,3.12
2023-03-30T12:23:00.877Z,3.31
2023-03-30T12:25:30.111Z,3.15
2023-03-30T12:28:12.867Z,3.11
2023-03-30T12:30:59.904Z,3.31
2023-03-30T12:33:36.766Z,3.36
2023-03-30T12:36:21.614Z,3.65
2023-03-30T12:38:49.958Z,3.42
2023-03-30T12:41:18.722Z,3.35
2023-03-30T12:44:08.886Z,2.96
2023-03-30T12:46:46.578Z,3.36
2023-03-30T12:49:38.185Z,3.35
2023-03-30T12:52:12.760Z,3.35
2023-03-30T12:55:05.714Z,3.20
2023-03-30T12:57:47.495Z,3.39
2023-03-30T13:00:23.052Z,3.32
2023-03-30T13:02:52.652Z,3.36
2023-03-30T13:05:38.213Z,3.30
2023-03-30T13:08:10.356Z,3.25
2023-03-30T13:10:40.883Z,3.20
2023-03-30T13:13:21.210Z,3.36
2023-03-30T13:15:53.203Z,3.38
2023-03-30T13:18:35.515Z,3.40
2023-03-30T13:21:28.177Z,3.55
2023-03-30T13:24:21.376Z,3.42
2023-03-30T13:26:48.095Z,3.72
2023-03-30T13:29:16.048Z,4.04
2023-03-30T13:31:51.636Z,3.78
2023-03-30T13:34:33.372Z,3.45
2023-03-30T13:37:29.576Z,3.40
2023-03-30T13:40:24.278Z,3.36
2023-03-30T13:43:23.677Z,3.71
2023-03-30T13:46:15.654Z,4.05
2023-03-30T13:49:10.257Z,3.54
2023-03-30T13:51:40.003Z,3.40
2023-03-30T13:54:11.835Z,3.51
2023-03-30T13:56:46.265Z,3.65
2023-03-30T13:59:19.704Z,3.65
2023-03-30T14:01:53.371Z,3.83
2023-03-30T14:04:20.103Z,3.65
2023-03-30T14:06:48.852Z,3.67
2023-03-30T14:09:23.216Z,3.74
2023-03-30T14:11:53.761Z,3.65
2023-03-30T14:14:26.102Z,3.45
2023-03-30T14:16:52.768Z,3.87
2023-03-30T14:19:38.273Z,3.66
2023-03-30T14:22:26.787Z,3.40
2023-03-30T14:25:05.424Z,3.29
2023-03-30T14:27:37.203Z,3.33
2023-03-30T14:30:19.142Z,3.48
2023-03-30T14:32:45.856Z,3.52
2023-03-30T14:35:17.548Z,3.82
2023-03-30T14:37:51.672Z,3.73
2023-03-30T14:40:22.932Z,3.94
2023-03-30T14:42:51.184Z,3.79
2023-03-30T14:45:19.405Z,3.85
2023-03-30T14:47:48.175Z,3.74
2023-03-30T14:50:17.168Z,3.52
2023-03-30T14:52:47.049Z,3.92
2023-03-30T14:55:22.614Z,4.19
2023-03-30T14:57:50.536Z,4.11
2023-03-30T15:00:20.534Z,4.12
2023-03-30T15:02:52.709Z,4.16
2023-03-30T15:05:23.713Z,4.19
2023-03-30T15:07:52.533Z,4.20
2023-03-30T15:10:28.932Z,3.94
2023-03-30T15:12:58.024Z,3.67
2023-03-30T15:15:30.718Z,3.93
2023-03-30T15:18:00.041Z,4.09
2023-03-30T15:20:31.062Z,3.89
2023-03-30T15:22:59.831Z,4.27
2023-03-30T15:25:35.143Z,4.45
2023-03-30T15:28:15.234Z,4.16
2023-03-30T15:30:44.087Z,4.27
2023-03-30T15:33:42.018Z,3.77
2023-03-30T15:36:17.972Z,3.67
2023-03-30T15:38:58.566Z,3.93
2023-03-30T15:41:58.995Z,4.20
2023-03-30T15:44:25.609Z,4.26
2023-03-30T15:46:55.774Z,4.17
2023-03-30T15:49:31.737Z,4.14
2023-03-30T15:52:01.897Z,3.99
2023-03-30T15:54:43.251Z,4.14
2023-03-30T15:57:09.912Z,3.97
2023-03-30T15:59:45.815Z,4.22
2023-03-30T16:02:18.042Z,4.10
2023-03-30T16:04:44.702Z,4.16
2023-03-30T16:07:18.483Z,4.30
2023-03-30T16:09:46.201Z,4.39
2023-03-30T16:12:20.371Z,4.44
2023-03-30T16:14:48.440Z,4.18
2023-03-30T16:17:15.755Z,4.30
2023-03-30T16:19:43.556Z,4.45
2023-03-30T16:22:12.604Z,4.53
2023-03-30T16:24:40.171Z,4.31
2023-03-30T16:27:07.933Z,4.14
2023-03-30T16:29:34.588Z,4.24
2023-03-30T16:32:01.728Z,4.34
2023-03-30T16:34:28.379Z,5.16
2023-03-30T16:36:55.135Z,4.79
2023-03-30T16:39:29.638Z,4.13
2023-03-30T16:41:56.464Z,4.21
2023-03-30T16:44:27.506Z,4.11
2023-03-30T16:46:54.150Z,4.27
2023-03-30T16:49:26.375Z,4.31
2023-03-30T16:51:57.552Z,4.43
2023-03-30T16:54:31.967Z,4.50
2023-03-30T16:56:59.850Z,4.42
2023-03-30T16:59:28.693Z,5.05
2023-03-30T17:01:55.356Z,5.03
2023-03-30T17:04:21.971Z,5.11
2023-03-30T17:06:48.642Z,5.12
2023-03-30T17:09:18.592Z,4.96
2023-03-30T17:11:46.534Z,5.24
2023-03-30T17:14:13.708Z,4.97
2023-03-30T17:16:43.242Z,4.55
2023-03-30T17:19:12.780Z,4.85
2023-03-30T17:21:40.084Z,5.18
2023-03-30T17:24:07.197Z,5.58
2023-03-30T17:26:34.493Z,5.58
2023-03-30T17:29:01.696Z,5.56
2023-03-30T17:31:28.338Z,5.68
2023-03-30T17:33:55.390Z,5.39
2023-03-30T17:36:25.116Z,5.32
2023-03-30T17:38:54.163Z,4.81
2023-03-30T17:41:21.310Z,4.82
2023-03-30T17:43:53.177Z,5.03
2023-03-30T17:46:20.007Z,4.92
2023-03-30T17:48:47.696Z,6.00
2023-03-30T17:51:14.435Z,5.93
2023-03-30T17:53:41.226Z,5.34
2023-03-30T17:56:12.993Z,6.66
2023-03-30T17:58:40.102Z,6.98
2023-03-30T18:01:09.430Z,6.74
2023-03-30T18:03:36.986Z,6.81
2023-03-30T18:06:07.486Z,6.86
2023-03-30T18:08:37.205Z,6.73
2023-03-30T18:11:14.356Z,5.77
2023-03-30T18:13:41.942Z,5.30
2023-03-30T18:16:11.256Z,5.86
2023-03-30T18:18:38.267Z,9.54
2023-03-30T18:21:14.775Z,13.35
2023-03-30T18:23:41.499Z,7.08
2023-03-30T18:26:12.466Z,5.93
2023-03-30T18:28:39.678Z,5.92
2023-03-30T18:31:06.736Z,6.71
2023-03-30T18:33:33.968Z,6.72
2023-03-30T18:36:00.679Z,6.48
2023-03-30T18:38:27.455Z,6.74
2023-03-30T18:40:54.135Z,6.87
2023-03-30T18:43:20.754Z,6.47
2023-03-30T18:45:49.821Z,6.58
2023-03-30T18:48:19.925Z,8.06
2023-03-30T18:50:51.700Z,7.82
2023-03-30T18:53:21.488Z,7.10
2023-03-30T18:55:51.494Z,7.41
2023-03-30T18:58:21.194Z,6.66
2023-03-30T19:00:49.867Z,6.20
2023-03-30T19:03:18.051Z,6.13
2023-03-30T19:05:45.467Z,6.04
2023-03-30T19:08:20.543Z,6.26
2023-03-30T19:10:50.188Z,5.82
2023-03-30T19:13:21.530Z,5.63
2023-03-30T19:15:50.526Z,6.04
2023-03-30T19:18:18.532Z,6.00
2023-03-30T19:20:45.914Z,6.00
2023-03-30T19:23:14.594Z,5.88
2023-03-30T19:25:42.693Z,5.57
2023-03-30T19:28:09.799Z,5.82
2023-03-30T19:30:39.336Z,6.22
2023-03-30T19:33:09.981Z,6.61
2023-03-30T19:35:38.995Z,6.89
2023-03-30T19:38:05.667Z,7.54
2023-03-30T19:40:32.310Z,9.74
2023-03-30T19:42:58.933Z,10.74
2023-03-30T19:45:25.576Z,13.37
2023-03-30T19:47:52.317Z,15.14
2023-03-30T19:50:21.168Z,17.68
2023-03-30T19:52:49.674Z,12.29
2023-03-30T19:55:20.399Z,13.05
2023-03-30T19:57:47.106Z,12.91
2023-03-30T20:00:16.304Z,13.85
2023-03-30T20:02:46.580Z,10.67
2023-03-30T20:05:13.985Z,12.41
2023-03-30T20:07:41.930Z,10.88
2023-03-30T20:10:11.797Z,9.64
2023-03-30T20:12:38.968Z,8.49
2023-03-30T20:15:07.077Z,7.43
2023-03-30T20:17:34.351Z,6.35
2023-03-30T20:20:01.416Z,5.97
2023-03-30T20:22:28.571Z,5.55
2023-03-30T20:24:55.262Z,5.75
2023-03-30T20:27:21.874Z,6.17
2023-03-30T20:29:48.516Z,6.17
2023-03-30T20:32:15.163Z,6.96
2023-03-30T20:34:41.745Z,6.84
2023-03-30T20:37:08.348Z,6.59
2023-03-30T20:39:34.950Z,6.43
2023-03-30T20:42:01.612Z,6.58
2023-03-30T20:44:28.225Z,6.45
2023-03-30T20:46:54.956Z,6.39
2023-03-30T20:49:21.724Z,6.45
2023-03-30T20:51:48.374Z,6.63
2023-03-30T20:54:17.749Z,6.33
2023-03-30T20:56:44.434Z,6.61
2023-03-30T20:59:11.205Z,7.32
2023-03-30T21:01:38.148Z,8.67
2023-03-30T21:04:05.254Z,7.43
2023-03-30T21:06:35.824Z,6.62
2023-03-30T21:09:06.417Z,6.20
2023-03-30T21:11:35.690Z,6.12
2023-03-30T21:14:02.313Z,6.03
2023-03-30T21:16:29.112Z,6.03
2023-03-30T21:18:55.794Z,6.02
2023-03-30T21:21:22.466Z,6.01
2023-03-30T21:23:49.072Z,5.48
2023-03-30T21:26:16.128Z,5.97
2023-03-30T21:28:42.813Z,6.38
2023-03-30T21:31:12.714Z,5.93
2023-03-30T21:33:39.795Z,5.65
2023-03-30T21:36:07.687Z,5.96
2023-03-30T21:38:34.676Z,5.88
2023-03-30T21:41:05.386Z,6.16
2023-03-30T21:43:41.288Z,6.14
2023-03-30T21:46:10.764Z,6.04
2023-03-30T21:48:39.997Z,6.16
2023-03-30T21:51:18.437Z,5.81
2023-03-30T21:53:47.480Z,7.31
2023-03-30T21:56:14.880Z,6.68
2023-03-30T21:58:41.837Z,7.59
2023-03-30T22:01:12.725Z,7.51
2023-03-30T22:03:41.622Z,6.72
2023-03-30T22:06:11.326Z,6.85
2023-03-30T22:08:38.315Z,6.63
2023-03-30T22:11:08.704Z,7.01
2023-03-30T22:13:35.439Z,7.31
2023-03-30T22:16:05.846Z,7.11
2023-03-30T22:18:34.028Z,6.49
2023-03-30T22:21:01.946Z,6.36
2023-03-30T22:23:29.095Z,6.14
2023-03-30T22:25:55.952Z,6.38
2023-03-30T22:28:22.716Z,6.05
2023-03-30T22:30:49.352Z,6.44
2023-03-30T22:33:16.327Z,6.05
2023-03-30T22:35:45.346Z,6.09
2023-03-30T22:38:12.709Z,6.64
2023-03-30T22:40:40.094Z,6.40
2023-03-30T22:43:06.956Z,6.26
2023-03-30T22:45:33.681Z,6.49
2023-03-30T22:48:00.389Z,6.33
2023-03-30T22:50:27.996Z,5.99
2023-03-30T22:52:55.925Z,6.28
2023-03-30T22:55:23.626Z,6.45
2023-03-30T22:57:55.146Z,5.75
2023-03-30T23:00:21.832Z,6.22
2023-03-30T23:02:50.310Z,6.13
2023-03-30T23:05:18.016Z,6.13
2023-03-30T23:07:44.610Z,5.91
2023-03-30T23:10:15.645Z,5.96
2023-03-30T23:12:43.043Z,6.08
2023-03-30T23:15:10.795Z,5.94
2023-03-30T23:17:38.454Z,6.21
2023-03-30T23:20:07.412Z,6.27
2023-03-30T23:22:34.004Z,6.26
2023-03-30T23:25:00.680Z,6.71
2023-03-30T23:27:27.330Z,6.40
2023-03-30T23:29:54.026Z,7.17
2023-03-30T23:32:20.627Z,6.63
2023-03-30T23:34:48.257Z,6.48
2023-03-30T23:37:14.973Z,6.92
2023-03-30T23:39:43.762Z,6.20
2023-03-30T23:42:10.396Z,6.40
2023-03-30T23:44:38.066Z,6.42
2023-03-30T23:47:05.084Z,6.47
2023-03-30T23:49:32.785Z,6.31
2023-03-30T23:51:59.403Z,6.26
2023-03-30T23:54:26.165Z,6.52
2023-03-30T23:56:52.800Z,6.39
2023-03-30T23:59:19.411Z,6.62
